Duolun, China
Current Conditions -  °F | °C
As of 11:00 AM on Friday 19 Dec 2014 (Local Time) from ZBAA Reporting Station
Clear Clear  
Wind Chill: 32°   Ceiling: Unl
Heat Index: 41°   Visibility: 6mi
Dew Point:   Wind: 20mph
Humidity: 23%   Direction: 320°NW
Pressure: 30.24"   Gusts: NA
Location:  42.18°N, 116.47°E
Report Text: ZBAA 190300Z 32009MPS CAVOK 05/M15 Q1024 NOSIG
Loading
Personal Weather Stations






























Interactive Weather Map New forecast layout! Learn more

10-Day Weather Forecast

Advertisements
Track Severe Weather on mobile